Time;durP1;ratioP1;P1;durP2;ratioP2;P2;SDS_P1;SDS_P2;PMS_P1;PMS_P2;Temp;Humidity;BMP_temperature;BMP_pressure;BME280_temperature;BME280_humidity;BME280_pressure;Samples;Min_cycle;Max_cycle;Signal;HPM_P1;HPM_P2
2022/10/15 00:01:07;;;;;;;0.23;0.23;;;17.00;99.90;;;;;;5032870;28;20205;-68
2022/10/15 00:03:36;;;;;;;0.20;0.20;;;17.00;99.90;;;;;;5035271;28;20215;-68
2022/10/15 00:06:05;;;;;;;0.30;0.30;;;17.10;99.90;;;;;;5037915;28;20201;-68
2022/10/15 00:08:32;;;;;;;1.70;0.30;;;17.10;99.90;;;;;;5034217;28;20228;-69
2022/10/15 00:11:03;;;;;;;0.20;0.20;;;17.20;99.90;;;;;;5023747;28;20686;-67
2022/10/15 00:13:31;;;;;;;0.10;0.10;;;17.10;99.90;;;;;;5029542;28;20210;-68
2022/10/15 00:15:58;;;;;;;0.23;0.23;;;17.10;99.90;;;;;;5034194;28;20556;-68
2022/10/15 00:18:25;;;;;;;0.27;0.27;;;17.00;99.90;;;;;;5034279;28;20227;-68
2022/10/15 00:20:52;;;;;;;0.30;0.30;;;17.10;99.90;;;;;;5033348;28;20580;-68
2022/10/15 00:23:19;;;;;;;0.10;0.10;;;17.10;99.90;;;;;;5032987;28;20601;-69
2022/10/15 00:25:45;;;;;;;0.00;0.00;;;17.10;99.90;;;;;;5033342;28;20208;-68
2022/10/15 00:28:12;;;;;;;0.30;0.30;;;17.10;99.90;;;;;;5037097;28;20231;-69
2022/10/15 00:30:40;;;;;;;0.43;0.23;;;17.10;99.90;;;;;;5044682;28;20201;-68
2022/10/15 00:33:07;;;;;;;0.10;0.10;;;17.10;99.90;;;;;;5048172;28;20302;-70
2022/10/15 00:35:34;;;;;;;0.20;0.20;;;17.20;99.90;;;;;;5051539;28;20269;-68
2022/10/15 00:38:01;;;;;;;0.10;0.10;;;17.40;99.90;;;;;;5050859;28;20296;-69
2022/10/15 00:40:27;;;;;;;0.10;0.10;;;17.10;99.90;;;;;;5044367;28;20964;-68
2022/10/15 00:42:54;;;;;;;0.00;0.00;;;17.10;99.90;;;;;;5036689;28;20203;-68
2022/10/15 00:45:21;;;;;;;0.10;0.10;;;17.20;99.90;;;;;;5041076;28;20211;-68
2022/10/15 00:47:51;;;;;;;0.20;0.20;;;17.20;99.90;;;;;;5034555;28;20216;-68
2022/10/15 00:50:21;;;;;;;0.10;0.10;;;17.20;99.90;;;;;;5032695;28;20216;-69
2022/10/15 00:52:59;;;;;;;0.20;0.20;;;17.20;99.90;;;;;;5032353;28;20200;-68
2022/10/15 00:55:30;;;;;;;0.50;0.30;;;17.20;99.90;;;;;;5032782;28;20210;-68
2022/10/15 00:57:59;;;;;;;0.30;0.10;;;17.30;99.90;;;;;;5032393;28;20235;-68
2022/10/15 01:00:26;;;;;;;0.10;0.10;;;17.20;99.90;;;;;;5032640;28;20208;-67
2022/10/15 01:02:54;;;;;;;0.10;0.10;;;17.20;99.90;;;;;;5031717;28;20211;-68
2022/10/15 01:05:21;;;;;;;0.20;0.20;;;17.30;99.90;;;;;;5032241;28;20227;-67
2022/10/15 01:07:48;;;;;;;0.20;0.20;;;17.30;99.90;;;;;;5032228;28;20227;-69
2022/10/15 01:10:16;;;;;;;0.00;0.00;;;17.30;99.90;;;;;;5032286;28;20207;-68
2022/10/15 01:12:52;;;;;;;0.17;0.17;;;17.50;99.90;;;;;;5031786;28;20208;-68
2022/10/15 01:15:23;;;;;;;0.10;0.10;;;17.30;99.90;;;;;;5032401;28;20210;-68
2022/10/15 01:17:55;;;;;;;0.30;0.20;;;17.30;99.90;;;;;;5031947;28;20252;-67
2022/10/15 01:20:51;;;;;;;0.33;0.20;;;17.30;99.90;;;;;;5034074;28;20211;-69
2022/10/15 01:23:54;;;;;;;0.20;0.20;;;17.30;99.90;;;;;;5038025;28;20207;-68
2022/10/15 01:26:54;;;;;;;0.00;0.00;;;17.30;99.90;;;;;;5035688;28;20206;-69
2022/10/15 01:29:36;;;;;;;0.10;0.10;;;17.40;99.90;;;;;;5018321;28;20228;-69
2022/10/15 01:32:11;;;;;;;0.20;0.20;;;17.40;99.90;;;;;;5035092;28;20200;-68
2022/10/15 01:34:46;;;;;;;0.23;0.23;;;17.50;99.90;;;;;;5033462;28;20204;-68
2022/10/15 01:37:19;;;;;;;0.00;0.00;;;17.50;99.90;;;;;;5026066;28;20224;-68
2022/10/15 01:39:52;;;;;;;0.07;0.07;;;17.50;99.90;;;;;;5032009;28;20212;-68
2022/10/15 01:42:26;;;;;;;0.10;0.10;;;17.50;99.90;;;;;;5026890;28;20605;-69
2022/10/15 01:44:58;;;;;;;0.20;0.20;;;17.50;99.90;;;;;;5025495;28;20204;-68
2022/10/15 01:47:32;;;;;;;0.00;0.00;;;17.50;99.90;;;;;;5027947;28;20225;-68
2022/10/15 01:50:00;;;;;;;0.20;0.10;;;17.50;99.90;;;;;;5030389;28;20224;-67
2022/10/15 01:52:31;;;;;;;0.10;0.10;;;17.50;99.90;;;;;;5030992;28;20211;-69
2022/10/15 01:55:01;;;;;;;0.20;0.20;;;17.50;99.90;;;;;;5031657;28;20270;-68
2022/10/15 01:57:30;;;;;;;0.10;0.10;;;17.50;99.90;;;;;;5031304;28;20220;-67
2022/10/15 01:59:58;;;;;;;0.10;0.10;;;17.50;99.90;;;;;;5031615;28;20207;-68
2022/10/15 02:02:25;;;;;;;0.10;0.10;;;17.50;99.90;;;;;;5031057;28;20572;-67
2022/10/15 02:04:53;;;;;;;0.10;0.10;;;17.50;99.90;;;;;;5031361;28;20207;-69
2022/10/15 02:07:27;;;;;;;0.20;0.20;;;17.50;99.90;;;;;;5031159;28;20710;-68
2022/10/15 02:10:00;;;;;;;0.20;0.20;;;17.50;99.90;;;;;;5023431;28;20212;-68
2022/10/15 02:12:45;;;;;;;0.20;0.20;;;17.50;99.90;;;;;;5031037;28;20216;-68
2022/10/15 02:15:18;;;;;;;0.30;0.30;;;17.50;99.90;;;;;;5025878;28;20204;-69
2022/10/15 02:17:54;;;;;;;0.10;0.10;;;17.50;99.90;;;;;;5032841;28;20585;-68
2022/10/15 02:20:29;;;;;;;0.10;0.10;;;17.50;99.90;;;;;;5032826;28;20200;-68
2022/10/15 02:22:59;;;;;;;0.10;0.10;;;17.50;99.90;;;;;;5026483;28;20311;-68
2022/10/15 02:25:28;;;;;;;0.10;0.10;;;17.60;99.90;;;;;;5032662;28;20204;-68
2022/10/15 02:27:57;;;;;;;0.20;0.20;;;17.60;99.90;;;;;;5024702;28;20232;-68
2022/10/15 02:30:25;;;;;;;0.20;0.20;;;17.60;99.90;;;;;;5031269;28;20788;-67
2022/10/15 02:32:55;;;;;;;0.23;0.20;;;17.60;99.90;;;;;;5030922;28;20295;-69
2022/10/15 02:35:24;;;;;;;0.10;0.10;;;17.60;99.90;;;;;;5031639;28;20201;-67
2022/10/15 02:37:54;;;;;;;0.83;0.57;;;17.60;99.90;;;;;;5035042;28;20232;-68
2022/10/15 02:40:26;;;;;;;0.10;0.10;;;17.60;99.90;;;;;;5034927;28;20197;-67
2022/10/15 02:42:53;;;;;;;0.10;0.10;;;17.60;99.90;;;;;;5034417;28;20600;-68
2022/10/15 02:45:20;;;;;;;0.20;0.20;;;17.60;99.90;;;;;;5035046;28;20201;-68
2022/10/15 02:47:47;;;;;;;0.10;0.10;;;17.60;99.90;;;;;;5034608;28;20722;-68
2022/10/15 02:50:14;;;;;;;0.43;0.37;;;17.70;99.90;;;;;;5034607;28;20225;-68
2022/10/15 02:52:42;;;;;;;0.00;0.00;;;17.70;99.90;;;;;;5034468;28;20215;-68
2022/10/15 02:55:09;;;;;;;0.30;0.30;;;17.70;99.90;;;;;;5034927;28;20205;-68
2022/10/15 02:57:36;;;;;;;0.10;0.10;;;17.70;99.90;;;;;;5034648;28;20232;-68
2022/10/15 03:00:04;;;;;;;0.20;0.20;;;17.70;99.90;;;;;;5035001;28;20222;-67
2022/10/15 03:02:31;;;;;;;0.13;0.13;;;17.70;99.90;;;;;;5034588;28;20211;-68
2022/10/15 03:04:58;;;;;;;0.57;0.57;;;17.70;99.90;;;;;;5034345;28;20713;-68
2022/10/15 03:07:25;;;;;;;0.20;0.20;;;17.70;99.90;;;;;;5034632;28;20328;-68
2022/10/15 03:09:53;;;;;;;0.20;0.20;;;17.70;99.90;;;;;;5034308;28;20225;-68
2022/10/15 03:12:22;;;;;;;0.20;0.20;;;17.70;99.90;;;;;;5034357;28;20207;-68
2022/10/15 03:14:49;;;;;;;0.47;0.47;;;17.70;99.90;;;;;;5034863;28;20207;-68
2022/10/15 03:17:16;;;;;;;0.10;0.10;;;17.70;99.90;;;;;;5043643;28;20227;-68
2022/10/15 03:19:43;;;;;;;0.30;0.20;;;17.70;99.90;;;;;;5041287;28;20220;-69
2022/10/15 03:22:09;;;;;;;0.13;0.13;;;17.70;99.90;;;;;;5034448;28;20586;-68
2022/10/15 03:24:36;;;;;;;0.63;0.20;;;17.70;99.90;;;;;;5034128;28;20207;-68
2022/10/15 03:27:04;;;;;;;0.10;0.10;;;17.70;99.90;;;;;;5034255;28;20247;-68
2022/10/15 03:29:31;;;;;;;0.20;0.20;;;17.70;99.90;;;;;;5034212;28;20235;-69
2022/10/15 03:31:58;;;;;;;0.20;0.20;;;17.70;99.90;;;;;;5033796;28;20201;-68
2022/10/15 03:34:25;;;;;;;0.10;0.10;;;17.70;99.90;;;;;;5034255;28;20212;-68
2022/10/15 03:36:52;;;;;;;0.10;0.10;;;17.70;99.90;;;;;;5033611;28;20217;-68
2022/10/15 03:39:18;;;;;;;0.30;0.30;;;17.70;99.90;;;;;;5034030;28;20196;-68
2022/10/15 03:41:45;;;;;;;0.13;0.13;;;17.70;99.90;;;;;;5033165;28;20201;-68
2022/10/15 03:44:13;;;;;;;0.10;0.10;;;17.60;99.90;;;;;;5015936;28;20239;-68
2022/10/15 03:46:40;;;;;;;0.23;0.23;;;17.60;99.90;;;;;;5033549;28;20714;-68
2022/10/15 03:49:07;;;;;;;0.33;0.30;;;17.70;99.90;;;;;;5026299;28;20228;-68
2022/10/15 03:51:35;;;;;;;0.30;0.30;;;17.70;99.90;;;;;;5033199;28;20215;-68
2022/10/15 03:54:02;;;;;;;0.20;0.20;;;17.60;99.90;;;;;;5033272;28;20208;-67
2022/10/15 03:56:28;;;;;;;0.27;0.27;;;17.60;99.90;;;;;;5033584;28;20205;-68
2022/10/15 03:58:55;;;;;;;0.30;0.30;;;17.60;99.90;;;;;;5029961;28;20204;-68
2022/10/15 04:01:23;;;;;;;0.20;0.20;;;17.60;99.90;;;;;;5033248;28;20336;-67
2022/10/15 04:03:52;;;;;;;0.20;0.20;;;17.70;99.90;;;;;;5033435;28;20197;-68
2022/10/15 04:06:19;;;;;;;0.20;0.20;;;17.60;99.90;;;;;;5033296;28;20208;-68
2022/10/15 04:08:46;;;;;;;0.40;0.40;;;17.60;99.90;;;;;;5033094;28;20211;-68
2022/10/15 04:11:13;;;;;;;0.20;0.20;;;17.60;99.90;;;;;;5019155;28;20205;-68
2022/10/15 04:13:40;;;;;;;0.20;0.20;;;17.60;99.90;;;;;;5032885;28;20662;-68
2022/10/15 04:16:07;;;;;;;0.20;0.20;;;17.60;99.90;;;;;;5033310;28;20575;-68
2022/10/15 04:18:35;;;;;;;0.30;0.30;;;17.60;99.90;;;;;;5032935;28;20225;-69
2022/10/15 04:21:02;;;;;;;0.30;0.30;;;17.60;99.90;;;;;;5042949;28;20211;-68
2022/10/15 04:23:29;;;;;;;0.30;0.30;;;17.60;99.90;;;;;;5033094;28;20584;-67
2022/10/15 04:25:59;;;;;;;0.20;0.20;;;17.60;99.90;;;;;;5025126;28;20208;-68
2022/10/15 04:28:25;;;;;;;0.23;0.20;;;17.60;99.90;;;;;;5032517;28;20229;-68
2022/10/15 04:30:57;;;;;;;0.20;0.20;;;17.60;99.90;;;;;;5032743;28;20224;-68
2022/10/15 04:33:24;;;;;;;0.97;0.30;;;17.60;99.90;;;;;;5034329;28;20235;-68
2022/10/15 04:36:00;;;;;;;0.37;0.30;;;17.60;99.90;;;;;;5041505;28;20292;-68
2022/10/15 04:38:27;;;;;;;0.30;0.30;;;17.60;99.90;;;;;;5045959;28;20311;-67
2022/10/15 04:41:00;;;;;;;0.10;0.10;;;17.60;99.90;;;;;;5048868;28;20715;-68
2022/10/15 04:43:27;;;;;;;0.33;0.33;;;17.60;99.90;;;;;;5046061;28;20204;-68
2022/10/15 04:45:56;;;;;;;0.30;0.30;;;17.60;99.90;;;;;;5041415;28;20211;-68
2022/10/15 04:48:23;;;;;;;0.30;0.30;;;17.60;99.90;;;;;;5041076;28;20235;-68
2022/10/15 04:50:50;;;;;;;0.47;0.23;;;17.70;99.90;;;;;;5039121;28;20234;-69
2022/10/15 04:53:18;;;;;;;0.30;0.30;;;17.60;99.90;;;;;;5035994;28;20296;-68
2022/10/15 04:55:45;;;;;;;0.20;0.20;;;17.60;99.90;;;;;;5033241;28;20208;-68
2022/10/15 04:58:12;;;;;;;0.37;0.37;;;17.60;99.90;;;;;;5032231;28;20267;-68
2022/10/15 05:00:39;;;;;;;0.13;0.13;;;17.60;99.90;;;;;;5032013;28;20239;-69
2022/10/15 05:03:06;;;;;;;0.30;0.30;;;17.60;99.90;;;;;;5032762;28;20243;-68
2022/10/15 05:05:33;;;;;;;0.30;0.30;;;17.60;99.90;;;;;;5032357;28;20204;-68
2022/10/15 05:08:00;;;;;;;0.30;0.30;;;17.50;99.90;;;;;;5032321;28;20233;-68
2022/10/15 05:10:29;;;;;;;0.17;0.10;;;17.50;99.90;;;;;;5032172;28;20606;-68
2022/10/15 05:12:57;;;;;;;0.40;0.40;;;17.50;99.90;;;;;;5037609;28;20204;-68
2022/10/15 05:15:26;;;;;;;0.37;0.37;;;17.50;99.90;;;;;;5042763;28;20211;-68
2022/10/15 05:17:53;;;;;;;0.40;0.40;;;17.50;99.90;;;;;;5044630;28;20228;-68
2022/10/15 05:20:19;;;;;;;0.60;0.50;;;17.50;99.90;;;;;;5038549;28;20208;-68
2022/10/15 05:22:46;;;;;;;0.30;0.20;;;17.60;99.90;;;;;;5032294;28;20677;-69
2022/10/15 05:25:13;;;;;;;0.20;0.20;;;17.60;99.90;;;;;;5032690;28;20663;-68
2022/10/15 05:27:41;;;;;;;0.20;0.20;;;17.60;99.90;;;;;;5031736;28;20246;-68
2022/10/15 05:30:09;;;;;;;0.33;0.33;;;17.60;99.90;;;;;;5031766;28;20220;-67
2022/10/15 05:32:36;;;;;;;0.30;0.30;;;17.60;99.90;;;;;;5031977;28;20205;-69
2022/10/15 05:35:03;;;;;;;0.20;0.20;;;17.60;99.90;;;;;;5032232;28;20670;-69
2022/10/15 05:37:30;;;;;;;0.20;0.20;;;17.60;99.90;;;;;;5031562;28;20231;-70
2022/10/15 05:39:57;;;;;;;0.27;0.27;;;17.60;99.90;;;;;;5026354;28;20215;-69
2022/10/15 05:42:24;;;;;;;0.40;0.40;;;17.70;99.90;;;;;;5031329;28;20201;-68
2022/10/15 05:44:52;;;;;;;0.40;0.40;;;17.60;99.90;;;;;;5031898;28;20211;-68
2022/10/15 05:47:19;;;;;;;0.50;0.50;;;17.60;99.90;;;;;;5031690;28;20569;-69
2022/10/15 05:49:45;;;;;;;0.50;0.50;;;17.50;99.90;;;;;;5031303;28;20225;-67
2022/10/15 05:52:12;;;;;;;0.40;0.40;;;17.50;99.90;;;;;;5031478;28;20211;-67
2022/10/15 05:54:39;;;;;;;0.30;0.30;;;17.40;99.90;;;;;;5031496;28;20219;-68
2022/10/15 05:57:06;;;;;;;0.40;0.40;;;17.40;99.90;;;;;;5031147;28;20227;-70
2022/10/15 05:59:33;;;;;;;0.23;0.23;;;17.30;99.90;;;;;;5031621;28;20301;-68
2022/10/15 06:02:01;;;;;;;0.30;0.30;;;17.30;99.90;;;;;;5028495;28;20208;-69
2022/10/15 06:04:28;;;;;;;0.20;0.20;;;17.30;99.90;;;;;;5031195;28;20287;-69
2022/10/15 06:06:55;;;;;;;0.77;0.77;;;17.40;99.90;;;;;;5031014;28;20235;-69
2022/10/15 06:09:22;;;;;;;0.60;0.60;;;17.40;99.90;;;;;;5026124;28;20205;-69
2022/10/15 06:11:49;;;;;;;0.30;0.30;;;17.40;99.90;;;;;;5032790;28;20323;-69
2022/10/15 06:14:15;;;;;;;0.27;0.27;;;17.40;99.90;;;;;;5035181;28;20211;-68
2022/10/15 06:16:42;;;;;;;0.30;0.30;;;17.40;99.90;;;;;;5035052;28;20224;-69
2022/10/15 06:19:11;;;;;;;0.10;0.10;;;17.40;99.90;;;;;;5033205;28;20213;-69
2022/10/15 06:21:37;;;;;;;0.10;0.10;;;17.40;99.90;;;;;;5032996;28;20740;-69
2022/10/15 06:24:05;;;;;;;0.20;0.20;;;17.40;99.90;;;;;;5033831;28;20209;-68
2022/10/15 06:26:32;;;;;;;0.20;0.20;;;17.40;99.90;;;;;;5032602;28;20204;-69
2022/10/15 06:28:59;;;;;;;0.20;0.20;;;17.40;99.90;;;;;;5034994;28;20295;-69
2022/10/15 06:31:26;;;;;;;0.50;0.50;;;17.40;99.90;;;;;;5032533;28;20287;-69
2022/10/15 06:33:52;;;;;;;0.30;0.30;;;17.40;99.90;;;;;;5034220;28;20201;-69
2022/10/15 06:36:23;;;;;;;0.20;0.20;;;17.40;99.90;;;;;;5034053;28;20209;-69
2022/10/15 06:38:50;;;;;;;0.17;0.17;;;17.50;99.90;;;;;;5034247;28;20284;-68
2022/10/15 06:41:17;;;;;;;0.30;0.30;;;17.40;99.90;;;;;;5034533;28;20252;-70
2022/10/15 06:43:44;;;;;;;0.10;0.10;;;17.50;99.90;;;;;;5034641;28;20219;-68
2022/10/15 06:46:11;;;;;;;0.13;0.13;;;17.60;99.90;;;;;;5036707;28;20212;-69
2022/10/15 06:48:38;;;;;;;0.20;0.20;;;17.60;99.90;;;;;;5042838;28;20288;-70
2022/10/15 06:51:05;;;;;;;0.20;0.20;;;17.60;99.90;;;;;;5036692;28;20596;-67
2022/10/15 06:53:34;;;;;;;0.13;0.13;;;17.60;99.90;;;;;;5035685;28;20284;-69
2022/10/15 06:56:02;;;;;;;0.20;0.20;;;17.60;99.90;;;;;;5027627;28;20204;-69
2022/10/15 06:58:29;;;;;;;0.10;0.10;;;17.50;99.90;;;;;;5034356;28;20235;-69
2022/10/15 07:01:00;;;;;;;0.20;0.20;;;17.50;99.90;;;;;;5033400;28;20207;-68
2022/10/15 07:03:27;;;;;;;0.10;0.10;;;17.50;99.90;;;;;;5034337;28;20201;-69
2022/10/15 07:05:54;;;;;;;0.30;0.30;;;17.60;99.90;;;;;;5034109;28;20201;-69
2022/10/15 07:08:21;;;;;;;0.57;0.57;;;17.50;99.90;;;;;;5034372;28;20226;-68
2022/10/15 07:10:49;;;;;;;0.40;0.40;;;17.50;99.90;;;;;;5033139;28;20221;-70
2022/10/15 07:13:16;;;;;;;0.30;0.30;;;17.50;99.90;;;;;;5036802;28;20205;-68
2022/10/15 07:15:45;;;;;;;0.47;0.47;;;17.50;99.90;;;;;;5037327;28;20205;-66
2022/10/15 07:18:12;;;;;;;1.23;0.63;;;17.60;99.90;;;;;;5035034;28;20228;-69
2022/10/15 07:20:38;;;;;;;2.57;1.00;;;17.60;99.90;;;;;;5033918;28;20287;-69
2022/10/15 07:23:05;;;;;;;0.70;0.70;;;17.50;99.90;;;;;;5033980;28;20205;-67
2022/10/15 07:25:32;;;;;;;0.90;0.90;;;17.50;99.90;;;;;;5034009;28;20208;-69
2022/10/15 07:28:00;;;;;;;0.30;0.30;;;17.50;99.90;;;;;;5035098;28;20229;-69
2022/10/15 07:30:28;;;;;;;0.40;0.40;;;17.50;99.90;;;;;;5035488;28;20224;-68
2022/10/15 07:32:56;;;;;;;0.27;0.27;;;17.50;99.90;;;;;;5033888;28;20207;-68
2022/10/15 07:35:23;;;;;;;0.40;0.40;;;17.50;99.90;;;;;;5033479;28;20205;-69
2022/10/15 07:37:50;;;;;;;0.40;0.40;;;17.50;99.90;;;;;;5033688;28;20735;-68
2022/10/15 07:40:17;;;;;;;0.33;0.30;;;17.50;99.90;;;;;;5033952;28;20201;-68
2022/10/15 07:42:44;;;;;;;0.10;0.10;;;17.40;99.90;;;;;;5033409;28;20566;-69
2022/10/15 07:45:13;;;;;;;0.40;0.40;;;17.40;99.90;;;;;;5033775;28;20674;-68
2022/10/15 07:47:40;;;;;;;0.10;0.10;;;17.50;99.90;;;;;;5033705;28;20232;-68
2022/10/15 07:50:08;;;;;;;0.20;0.20;;;17.50;99.90;;;;;;5033147;28;20239;-69
2022/10/15 07:52:34;;;;;;;0.20;0.20;;;17.50;99.90;;;;;;5033561;28;20274;-70
2022/10/15 07:55:01;;;;;;;0.20;0.20;;;17.50;99.90;;;;;;5036344;28;20288;-68
2022/10/15 07:57:28;;;;;;;0.47;0.20;;;17.60;99.90;;;;;;5045129;28;20259;-69
2022/10/15 07:59:55;;;;;;;0.67;0.30;;;17.60;99.90;;;;;;5037131;28;20201;-67
2022/10/15 08:02:23;;;;;;;0.30;0.30;;;17.70;99.90;;;;;;5041528;28;20287;-67
2022/10/15 08:04:50;;;;;;;0.23;0.23;;;17.70;99.90;;;;;;5039654;28;20205;-68
2022/10/15 08:07:17;;;;;;;0.37;0.37;;;17.80;99.90;;;;;;5034194;28;20224;-68
2022/10/15 08:09:44;;;;;;;0.20;0.20;;;17.80;99.90;;;;;;5033328;28;20205;-67
2022/10/15 08:12:11;;;;;;;0.30;0.30;;;17.90;99.90;;;;;;5032938;28;20228;-68
2022/10/15 08:14:38;;;;;;;0.30;0.30;;;17.90;99.90;;;;;;5032739;28;20322;-69
2022/10/15 08:17:06;;;;;;;0.60;0.30;;;17.90;99.90;;;;;;5030880;28;20682;-69
2022/10/15 08:19:34;;;;;;;0.13;0.13;;;17.90;99.90;;;;;;5032578;28;20197;-67
2022/10/15 08:22:01;;;;;;;0.40;0.40;;;17.90;99.90;;;;;;5032984;28;20246;-68
2022/10/15 08:24:29;;;;;;;0.63;0.57;;;17.90;99.90;;;;;;5033404;28;20211;-69
2022/10/15 08:26:57;;;;;;;0.30;0.30;;;17.90;99.90;;;;;;5032639;28;20236;-69
2022/10/15 08:29:24;;;;;;;0.57;0.30;;;17.90;99.90;;;;;;5033234;28;20241;-68
2022/10/15 08:31:51;;;;;;;0.30;0.30;;;17.90;99.90;;;;;;5032834;28;20228;-67
2022/10/15 08:34:17;;;;;;;0.23;0.23;;;17.80;99.90;;;;;;5028426;28;20590;-69
2022/10/15 08:36:45;;;;;;;0.40;0.40;;;17.90;99.90;;;;;;5031022;28;20224;-70
2022/10/15 08:39:12;;;;;;;0.20;0.20;;;17.90;99.90;;;;;;5032669;28;20295;-68
2022/10/15 08:41:43;;;;;;;0.20;0.20;;;17.90;99.90;;;;;;5032411;28;20284;-69
2022/10/15 08:44:18;;;;;;;0.50;0.50;;;17.90;99.90;;;;;;5032047;28;20220;-69
2022/10/15 08:46:48;;;;;;;0.50;0.50;;;17.90;99.90;;;;;;5034496;28;20245;-68
2022/10/15 08:49:27;;;;;;;0.40;0.40;;;17.90;99.90;;;;;;5032581;28;20204;-68
2022/10/15 08:52:01;;;;;;;0.40;0.40;;;17.90;99.90;;;;;;5032804;28;20224;-68
2022/10/15 08:54:31;;;;;;;0.57;0.57;;;17.90;99.90;;;;;;5033172;28;20204;-68
2022/10/15 08:57:11;;;;;;;0.33;0.33;;;17.90;99.90;;;;;;5032246;28;20224;-70
2022/10/15 08:59:45;;;;;;;0.50;0.50;;;17.90;99.90;;;;;;5031969;28;20197;-69
2022/10/15 09:02:19;;;;;;;1.03;0.60;;;17.90;99.90;;;;;;5038411;28;20327;-69
2022/10/15 09:04:53;;;;;;;0.63;0.63;;;17.90;99.90;;;;;;5035371;28;20209;-68
2022/10/15 09:07:26;;;;;;;0.57;0.57;;;18.00;99.90;;;;;;5031457;28;20215;-69
2022/10/15 09:09:57;;;;;;;0.73;0.50;;;18.00;99.90;;;;;;5032482;28;20220;-69
2022/10/15 09:12:42;;;;;;;0.50;0.50;;;18.00;99.90;;;;;;5029284;28;20216;-68
2022/10/15 09:15:14;;;;;;;0.57;0.57;;;17.90;99.90;;;;;;5025959;28;20714;-68
2022/10/15 09:17:42;;;;;;;0.40;0.40;;;18.00;99.90;;;;;;5033091;28;20228;-67
2022/10/15 09:20:16;;;;;;;0.40;0.40;;;18.00;99.90;;;;;;5029761;28;20675;-68
2022/10/15 09:22:49;;;;;;;0.40;0.40;;;18.00;99.90;;;;;;5030860;28;20219;-67
2022/10/15 09:25:18;;;;;;;0.50;0.50;;;17.90;99.90;;;;;;5032056;28;20204;-68
2022/10/15 09:27:47;;;;;;;0.53;0.53;;;17.90;99.90;;;;;;5028926;28;20257;-66
2022/10/15 09:30:28;;;;;;;0.50;0.50;;;17.90;99.90;;;;;;5032099;28;20212;-70
2022/10/15 09:33:02;;;;;;;0.50;0.50;;;17.90;99.90;;;;;;5031164;28;20203;-68
2022/10/15 09:35:33;;;;;;;0.67;0.67;;;18.00;99.90;;;;;;5032313;28;20215;-69
2022/10/15 09:38:13;;;;;;;0.50;0.50;;;18.00;99.90;;;;;;5031552;28;20235;-69
2022/10/15 09:40:52;;;;;;;0.50;0.50;;;18.00;99.90;;;;;;5019733;28;20459;-68
2022/10/15 09:43:29;;;;;;;0.30;0.30;;;18.10;99.90;;;;;;5033546;28;20208;-70
2022/10/15 09:45:56;;;;;;;1.07;0.83;;;18.10;99.90;;;;;;5018158;28;20730;-69
2022/10/15 09:48:25;;;;;;;0.63;0.63;;;18.20;99.90;;;;;;5027453;28;20562;-68
2022/10/15 09:50:57;;;;;;;0.90;0.90;;;18.20;99.90;;;;;;5028342;28;20728;-65
2022/10/15 09:53:40;;;;;;;0.50;0.50;;;18.20;99.90;;;;;;5029675;28;20679;-68
2022/10/15 09:56:14;;;;;;;0.80;0.80;;;18.20;99.90;;;;;;5029016;28;20210;-67
2022/10/15 09:58:51;;;;;;;1.00;1.00;;;18.20;99.90;;;;;;5025140;28;20710;-69
2022/10/15 10:01:20;;;;;;;1.00;1.00;;;18.30;99.90;;;;;;5029363;28;20223;-68
2022/10/15 10:03:52;;;;;;;0.80;0.80;;;18.20;99.90;;;;;;5023800;28;20211;-68
2022/10/15 10:06:19;;;;;;;0.60;0.60;;;18.30;99.90;;;;;;5029065;28;20215;-68
2022/10/15 10:08:52;;;;;;;0.60;0.60;;;18.20;99.90;;;;;;5031624;28;20211;-68
2022/10/15 10:11:20;;;;;;;0.77;0.77;;;18.20;99.90;;;;;;5031664;28;20248;-68
2022/10/15 10:13:51;;;;;;;0.40;0.40;;;18.10;99.90;;;;;;5030039;28;20660;-69
2022/10/15 10:16:20;;;;;;;0.57;0.57;;;18.10;99.90;;;;;;5031543;28;20292;-68
2022/10/15 10:19:04;;;;;;;0.50;0.50;;;18.10;99.90;;;;;;5028949;28;20227;-68
2022/10/15 10:21:32;;;;;;;0.70;0.70;;;18.10;99.90;;;;;;5035200;28;20208;-69
2022/10/15 10:24:27;;;;;;;0.80;0.80;;;18.00;99.90;;;;;;5023790;28;20663;-69
2022/10/15 10:26:54;;;;;;;0.60;0.37;;;17.90;99.90;;;;;;5031130;28;20261;-69
2022/10/15 10:29:23;;;;;;;0.50;0.50;;;18.00;99.90;;;;;;5030975;28;20208;-67
2022/10/15 10:31:51;;;;;;;0.77;0.40;;;18.10;99.90;;;;;;5030550;28;20216;-67
2022/10/15 10:34:28;;;;;;;0.60;0.60;;;18.10;99.90;;;;;;5031964;28;20291;-67
2022/10/15 10:36:56;;;;;;;0.50;0.50;;;18.10;99.90;;;;;;5031464;28;20698;-68
2022/10/15 10:39:28;;;;;;;0.73;0.73;;;18.10;99.90;;;;;;5031871;28;20726;-70
2022/10/15 10:41:56;;;;;;;0.50;0.50;;;18.10;99.90;;;;;;5029314;28;20215;-69
2022/10/15 10:44:28;;;;;;;1.50;0.63;;;18.10;99.90;;;;;;5030337;28;20207;-67
2022/10/15 10:47:04;;;;;;;0.40;0.40;;;18.10;99.90;;;;;;5030416;28;20224;-68
2022/10/15 10:49:32;;;;;;;0.47;0.47;;;18.20;99.90;;;;;;5033107;28;20580;-68
2022/10/15 10:51:59;;;;;;;0.27;0.27;;;18.10;99.90;;;;;;5032948;28;20260;-67
2022/10/15 10:54:29;;;;;;;1.27;0.90;;;18.20;99.90;;;;;;5037239;28;20204;-68
2022/10/15 10:56:58;;;;;;;0.40;0.40;;;18.20;99.90;;;;;;5033414;28;20694;-68
2022/10/15 10:59:31;;;;;;;0.40;0.40;;;18.20;99.90;;;;;;5031488;28;20197;-71
2022/10/15 11:01:58;;;;;;;0.33;0.33;;;18.30;99.90;;;;;;5038226;28;20200;-67
2022/10/15 11:04:27;;;;;;;0.53;0.53;;;18.20;99.90;;;;;;5042037;28;20601;-69
2022/10/15 11:07:03;;;;;;;0.37;0.37;;;18.30;99.90;;;;;;5039821;28;20749;-69
2022/10/15 11:09:47;;;;;;;0.40;0.40;;;18.30;99.90;;;;;;5039192;28;20205;-68
2022/10/15 11:12:33;;;;;;;0.50;0.50;;;18.30;99.90;;;;;;5039040;28;20224;-68
2022/10/15 11:15:15;;;;;;;0.47;0.47;;;18.30;99.90;;;;;;5042308;28;20659;-67
2022/10/15 11:17:51;;;;;;;0.83;0.60;;;18.30;99.90;;;;;;5044875;28;20724;-67
2022/10/15 11:20:22;;;;;;;0.40;0.40;;;18.40;99.90;;;;;;5041704;28;20208;-68
2022/10/15 11:23:04;;;;;;;0.50;0.50;;;18.50;99.90;;;;;;5041216;28;20196;-70
2022/10/15 11:25:41;;;;;;;0.60;0.60;;;18.50;99.90;;;;;;5037702;28;20216;-69
2022/10/15 11:28:23;;;;;;;0.50;0.50;;;18.50;99.90;;;;;;5033779;28;20760;-69
2022/10/15 11:30:58;;;;;;;0.43;0.37;;;18.50;99.90;;;;;;5030582;28;20202;-67
2022/10/15 11:33:41;;;;;;;0.57;0.57;;;18.40;99.90;;;;;;5033900;28;20208;-68
2022/10/15 11:36:28;;;;;;;0.40;0.40;;;18.40;99.90;;;;;;5031620;28;20684;-69
2022/10/15 11:39:03;;;;;;;0.57;0.50;;;18.40;99.90;;;;;;5032998;28;20201;-67
2022/10/15 11:41:43;;;;;;;0.43;0.43;;;18.40;99.90;;;;;;5032834;28;20188;-67
2022/10/15 11:44:36;;;;;;;0.40;0.40;;;18.40;99.90;;;;;;5025356;28;20197;-69
2022/10/15 11:47:14;;;;;;;0.50;0.50;;;18.40;99.90;;;;;;5029010;28;20311;-67
2022/10/15 11:49:55;;;;;;;0.40;0.40;;;18.40;99.90;;;;;;5024807;28;20689;-68
2022/10/15 11:52:38;;;;;;;0.40;0.40;;;18.60;99.90;;;;;;5027455;28;20238;-67
2022/10/15 11:55:13;;;;;;;0.60;0.60;;;18.60;99.90;;;;;;5026333;28;20573;-69
2022/10/15 11:57:45;;;;;;;0.57;0.57;;;18.70;99.90;;;;;;5025702;28;20277;-68
2022/10/15 12:00:23;;;;;;;0.50;0.50;;;18.70;99.90;;;;;;5021629;28;20208;-68
2022/10/15 12:02:51;;;;;;;0.60;0.50;;;18.70;99.90;;;;;;5026540;28;20575;-68
2022/10/15 12:05:26;;;;;;;0.30;0.30;;;18.70;99.90;;;;;;5032282;28;20296;-67
2022/10/15 12:07:54;;;;;;;0.47;0.47;;;18.70;99.90;;;;;;5031794;28;20256;-68
2022/10/15 12:10:36;;;;;;;0.60;0.60;;;18.80;99.90;;;;;;5032946;28;20702;-69
2022/10/15 12:13:09;;;;;;;0.60;0.60;;;18.80;99.90;;;;;;5028782;28;20244;-69
2022/10/15 12:15:45;;;;;;;0.50;0.50;;;18.90;99.90;;;;;;5033060;28;20555;-69
2022/10/15 12:18:20;;;;;;;0.60;0.60;;;18.90;99.90;;;;;;5040478;28;20224;-70
2022/10/15 12:20:47;;;;;;;0.33;0.33;;;18.90;99.90;;;;;;5036304;28;20299;-69
2022/10/15 12:23:39;;;;;;;0.40;0.40;;;18.90;99.90;;;;;;5025731;28;20200;-70
2022/10/15 12:26:27;;;;;;;1.60;0.70;;;18.90;99.90;;;;;;5025542;28;20237;-69
2022/10/15 12:28:57;;;;;;;0.57;0.57;;;18.90;99.90;;;;;;5031549;28;20208;-69
2022/10/15 12:31:24;;;;;;;0.47;0.47;;;18.90;99.90;;;;;;5033367;28;20246;-69
2022/10/15 12:33:52;;;;;;;1.33;0.50;;;18.90;99.90;;;;;;5028818;28;20225;-69
2022/10/15 12:36:26;;;;;;;0.77;0.50;;;18.90;99.90;;;;;;5030220;28;20209;-70
2022/10/15 12:38:59;;;;;;;0.30;0.30;;;18.90;99.90;;;;;;5027020;28;20225;-69
2022/10/15 12:41:38;;;;;;;0.37;0.37;;;18.90;99.90;;;;;;5027621;28;20196;-69
2022/10/15 12:44:15;;;;;;;0.50;0.50;;;18.90;99.90;;;;;;5026176;28;20218;-70
2022/10/15 12:46:42;;;;;;;2.33;0.70;;;18.90;99.90;;;;;;5032845;28;20216;-69
2022/10/15 12:49:46;;;;;;;1.60;0.77;;;18.90;99.90;;;;;;5028387;28;20640;-70
2022/10/15 12:52:53;;;;;;;0.30;0.30;;;18.90;99.90;;;;;;5026274;28;20294;-68
2022/10/15 12:55:29;;;;;;;0.50;0.50;;;18.90;99.90;;;;;;5020522;28;20200;-70
2022/10/15 12:58:02;;;;;;;0.50;0.50;;;19.00;99.90;;;;;;5036376;28;20234;-70
2022/10/15 13:00:50;;;;;;;0.60;0.60;;;19.10;99.90;;;;;;5029000;28;20298;-71
2022/10/15 13:03:37;;;;;;;0.60;0.60;;;19.20;99.90;;;;;;5026129;28;20203;-71
2022/10/15 13:06:23;;;;;;;0.70;0.70;;;19.30;99.90;;;;;;5034618;28;20288;-71